Time;durP1;ratioP1;P1;durP2;ratioP2;P2;SDS_P1;SDS_P2;PMS_P1;PMS_P2;Temp;Humidity;BMP_temperature;BMP_pressure;BME280_temperature;BME280_humidity;BME280_pressure;Samples;Min_cycle;Max_cycle;Signal;HPM_P1;HPM_P2
2023/09/27 00:03:42;;;;;;;19.80;15.35;;;;;;;-145.68;100.00;74137.47;10409730;28;20199;-74
2023/09/27 00:08:43;;;;;;;18.92;14.10;;;;;;;-145.68;100.00;74117.47;10392497;28;20562;-75
2023/09/27 00:13:43;;;;;;;22.30;15.10;;;;;;;-145.68;100.00;74107.47;10391949;28;20203;-74
2023/09/27 00:18:45;;;;;;;22.05;15.88;;;;;;;-145.68;100.00;74085.47;10391855;28;20213;-73
2023/09/27 00:23:45;;;;;;;20.20;14.52;;;;;;;-145.68;100.00;74099.47;10409081;28;20207;-75
2023/09/27 00:28:46;;;;;;;19.58;13.57;;;;;;;-145.68;100.00;74093.47;10391528;28;20586;-75
2023/09/27 00:33:47;;;;;;;24.45;14.10;;;;;;;-145.68;100.00;74079.50;10390594;28;20287;-75
2023/09/27 00:38:49;;;;;;;20.20;15.05;;;;;;;-145.68;100.00;74073.50;10359083;28;20647;-73
2023/09/27 00:43:49;;;;;;;21.25;15.25;;;;;;;-145.68;100.00;74069.50;10390304;28;20255;-75
2023/09/27 00:48:50;;;;;;;21.50;14.55;;;;;;;-145.68;100.00;74071.50;10390401;28;20240;-76
2023/09/27 00:53:51;;;;;;;20.63;14.90;;;;;;;-145.68;100.00;74063.50;10390276;28;20732;-75
2023/09/27 00:58:52;;;;;;;21.00;14.18;;;;;;;-145.68;100.00;74071.50;10389257;28;20248;-75
2023/09/27 01:03:53;;;;;;;19.33;15.30;;;;;;;-145.68;100.00;74067.50;10389725;28;20184;-73
2023/09/27 01:08:54;;;;;;;18.77;14.52;;;;;;;-145.68;100.00;74059.50;10378149;28;20276;-73
2023/09/27 01:13:54;;;;;;;19.48;14.65;;;;;;;-145.68;100.00;74047.50;10406937;28;20212;-75
2023/09/27 01:19:01;;;;;;;20.02;14.75;;;;;;;-145.68;100.00;74047.50;10407282;28;20223;-75
2023/09/27 01:24:01;;;;;;;18.77;13.02;;;;;;;-145.68;100.00;74051.50;10388896;28;20192;-73
2023/09/27 01:29:01;;;;;;;18.65;13.93;;;;;;;-145.68;100.00;74061.50;10372726;28;20679;-73
2023/09/27 01:34:02;;;;;;;21.65;13.63;;;;;;;-145.68;100.00;74061.50;10388608;28;20199;-73
2023/09/27 01:39:02;;;;;;;25.05;15.05;;;;;;;-145.68;100.00;74063.50;10388890;28;20215;-73
2023/09/27 01:44:03;;;;;;;20.65;14.45;;;;;;;-145.68;100.00;74051.50;10387733;28;20201;-73
2023/09/27 01:49:04;;;;;;;23.42;15.63;;;;;;;-145.68;100.00;74029.50;10387861;28;20290;-73
2023/09/27 01:54:04;;;;;;;23.75;17.15;;;;;;;-145.68;100.00;74013.53;10388108;28;20200;-76
2023/09/27 01:59:05;;;;;;;29.55;16.67;;;;;;;-145.68;100.00;74013.53;10387841;28;20219;-73
2023/09/27 02:04:06;;;;;;;19.52;14.98;;;;;;;-145.68;100.00;74019.50;10387885;28;20256;-74
2023/09/27 02:09:06;;;;;;;21.70;14.90;;;;;;;-145.68;100.00;74057.50;10371572;28;20649;-74
2023/09/27 02:14:07;;;;;;;24.88;13.73;;;;;;;-145.68;100.00;74097.47;10381352;28;20187;-74
2023/09/27 02:19:07;;;;;;;19.42;12.93;;;;;;;-145.68;100.00;74141.47;10384050;28;20589;-74
2023/09/27 02:24:09;;;;;;;17.33;13.30;;;;;;;-145.68;100.00;74183.44;10385155;28;20189;-74
2023/09/27 02:29:09;;;;;;;26.15;14.20;;;;;;;-145.68;100.00;74199.44;10403022;28;20311;-74
2023/09/27 02:34:10;;;;;;;17.02;13.15;;;;;;;-145.68;100.00;74231.41;10404464;28;20563;-73
2023/09/27 02:39:10;;;;;;;19.38;13.88;;;;;;;-145.68;100.00;74235.41;10386633;28;20671;-74
2023/09/27 02:44:11;;;;;;;26.33;15.38;;;;;;;-145.68;100.00;74261.41;10386185;28;20676;-74
2023/09/27 02:49:12;;;;;;;15.77;13.18;;;;;;;-145.68;100.00;74263.41;10384426;28;20608;-74
2023/09/27 02:54:14;;;;;;;19.52;14.93;;;;;;;-145.68;100.00;74287.41;10369618;28;20184;-73
2023/09/27 02:59:14;;;;;;;25.27;16.65;;;;;;;-145.68;100.00;74289.41;10403948;28;20240;-74
2023/09/27 03:04:17;;;;;;;29.73;19.85;;;;;;;-145.68;100.00;74283.41;10386043;28;20559;-73
2023/09/27 03:09:18;;;;;;;36.83;21.40;;;;;;;-145.68;100.00;74303.38;10385658;28;20199;-75
2023/09/27 03:14:19;;;;;;;27.90;19.70;;;;;;;-145.68;100.00;74253.41;10385681;28;20649;-74
2023/09/27 03:19:21;;;;;;;26.42;18.65;;;;;;;-145.68;100.00;74255.41;10409702;28;20220;-75
2023/09/27 03:24:22;;;;;;;29.73;20.48;;;;;;;-145.68;100.00;74269.41;10408984;28;20192;-75
2023/09/27 03:29:23;;;;;;;32.22;19.30;;;;;;;-145.68;100.00;74287.41;10393356;28;20213;-75
2023/09/27 03:34:25;;;;;;;24.30;18.20;;;;;;;-145.68;100.00;74275.41;10392761;28;20185;-74
2023/09/27 03:39:28;;;;;;;28.15;19.58;;;;;;;-145.68;100.00;74283.41;10392103;28;20590;-75
2023/09/27 03:44:31;;;;;;;28.08;17.63;;;;;;;-145.68;100.00;74299.38;10376044;28;20216;-75
2023/09/27 03:49:33;;;;;;;24.95;18.33;;;;;;;-145.68;100.00;74301.38;10392032;28;20228;-75
2023/09/27 03:54:33;;;;;;;23.63;17.80;;;;;;;-145.68;100.00;74339.38;10392569;28;20593;-75
2023/09/27 03:59:33;;;;;;;25.17;17.15;;;;;;;-145.68;100.00;74359.38;10406947;28;20307;-75
2023/09/27 04:04:34;;;;;;;26.25;17.38;;;;;;;-145.68;100.00;74373.38;10409735;28;20204;-75
2023/09/27 04:09:35;;;;;;;32.20;21.35;;;;;;;-145.68;100.00;74391.34;10408018;28;20664;-75
2023/09/27 04:14:35;;;;;;;36.85;21.55;;;;;;;-145.68;100.00;74387.34;10411717;28;20601;-74
2023/09/27 04:19:35;;;;;;;29.20;19.52;;;;;;;-145.68;100.00;74387.34;10409608;28;20227;-74
2023/09/27 04:24:36;;;;;;;28.38;19.02;;;;;;;-145.68;100.00;74367.38;10408946;28;20192;-74
2023/09/27 04:29:37;;;;;;;33.78;20.77;;;;;;;-145.68;100.00;74363.38;10405366;28;20980;-74
2023/09/27 04:34:37;;;;;;;40.17;22.60;;;;;;;-145.68;100.00;74353.38;10408775;28;20715;-74
2023/09/27 04:39:39;;;;;;;30.58;19.13;;;;;;;-145.68;100.00;74385.34;10408598;28;20266;-74
2023/09/27 04:44:40;;;;;;;34.30;22.13;;;;;;;-145.68;100.00;74389.34;10391421;28;20197;-74
2023/09/27 04:49:40;;;;;;;37.92;22.75;;;;;;;-145.68;100.00;74341.38;10408274;28;20584;-74
2023/09/27 04:54:41;;;;;;;29.15;19.17;;;;;;;-145.68;100.00;74359.38;10407806;28;20216;-75
2023/09/27 04:59:42;;;;;;;27.27;18.40;;;;;;;-145.68;100.00;74369.38;10408294;28;20232;-74
2023/09/27 05:04:42;;;;;;;29.27;18.75;;;;;;;-145.68;100.00;74343.38;10407649;28;20299;-74
2023/09/27 05:09:42;;;;;;;26.75;17.92;;;;;;;-145.68;100.00;74331.38;10407639;28;20189;-75
2023/09/27 05:14:43;;;;;;;23.70;17.35;;;;;;;-145.68;100.00;74325.38;10407249;28;20232;-75
2023/09/27 05:19:44;;;;;;;25.58;18.27;;;;;;;-145.68;100.00;74317.38;10405437;28;20216;-75
2023/09/27 05:24:47;;;;;;;23.60;15.93;;;;;;;-145.68;100.00;74309.38;10388779;28;20188;-75
2023/09/27 05:29:47;;;;;;;24.48;15.05;;;;;;;-145.68;100.00;74307.38;10407233;28;20196;-74
2023/09/27 05:34:48;;;;;;;23.58;16.23;;;;;;;-145.68;100.00;74295.41;10406505;28;20692;-74
2023/09/27 05:39:48;;;;;;;25.77;18.95;;;;;;;-145.68;100.00;74301.38;10405654;28;20643;-75
2023/09/27 05:44:49;;;;;;;22.10;16.88;;;;;;;-145.68;100.00;74305.38;10405728;28;20617;-74
2023/09/27 05:49:49;;;;;;;22.65;14.85;;;;;;;-145.68;100.00;74279.41;10405807;28;20692;-75
2023/09/27 05:54:51;;;;;;;22.40;15.77;;;;;;;-145.68;100.00;74257.41;10405494;28;20192;-74
2023/09/27 05:59:51;;;;;;;23.38;16.58;;;;;;;-145.68;100.00;74239.41;10405895;28;20248;-74
2023/09/27 06:04:52;;;;;;;24.33;15.52;;;;;;;-145.68;100.00;74225.41;10405127;28;20704;-74
2023/09/27 06:09:52;;;;;;;20.13;16.77;;;;;;;-145.68;100.00;74197.44;10405475;28;20267;-74
2023/09/27 06:14:53;;;;;;;21.63;16.00;;;;;;;-145.68;100.00;74119.47;10404985;28;20657;-74
2023/09/27 06:19:55;;;;;;;21.10;13.40;;;;;;;-145.68;100.00;74081.47;10404426;28;20228;-74
2023/09/27 06:24:56;;;;;;;16.15;12.75;;;;;;;-145.68;100.00;74019.50;10404596;28;20232;-74
2023/09/27 06:29:57;;;;;;;20.20;12.30;;;;;;;-145.68;100.00;73941.56;10405284;28;20547;-74
2023/09/27 06:34:57;;;;;;;14.57;11.30;;;;;;;-145.68;100.00;73851.59;10403840;28;20204;-74
2023/09/27 06:39:57;;;;;;;14.15;11.07;;;;;;;-145.68;100.00;73841.59;10402929;28;20592;-74
2023/09/27 06:44:58;;;;;;;14.40;10.55;;;;;;;-145.68;100.00;73741.66;10404044;28;20274;-75
2023/09/27 06:49:58;;;;;;;15.25;10.55;;;;;;;-145.68;100.00;73685.69;10404031;28;20243;-73
2023/09/27 06:54:59;;;;;;;15.18;10.23;;;;;;;-145.68;100.00;73609.72;10404249;28;20212;-73
2023/09/27 07:00:00;;;;;;;11.55;8.63;;;;;;;-145.68;100.00;73559.75;10403986;28;20212;-74
2023/09/27 07:05:00;;;;;;;14.80;8.10;;;;;;;-145.68;100.00;73417.84;10403643;28;20732;-74
2023/09/27 07:10:00;;;;;;;11.73;7.45;;;;;;;-145.68;95.13;73345.88;10404129;28;20263;-74
2023/09/27 07:15:04;;;;;;;15.25;8.07;;;;;;;-145.68;90.08;73327.91;10404230;28;20199;-74
2023/09/27 07:20:24;;;;;;;10.23;7.07;;;;;;;-145.68;87.98;73327.91;10403289;28;20748;-75
2023/09/27 07:25:25;;;;;;;10.23;7.90;;;;;;;-145.68;87.45;73311.91;10404436;28;20196;-74
2023/09/27 07:30:25;;;;;;;7.38;6.68;;;;;;;-145.68;79.12;73156.00;10402781;28;20275;-74
2023/09/27 07:35:31;;;;;;;12.32;6.68;;;;;;;-145.68;69.97;73076.06;10402442;28;20204;-74
2023/09/27 07:40:32;;;;;;;8.73;6.00;;;;;;;-145.68;67.02;72938.16;10402738;28;20577;-74
2023/09/27 07:45:36;;;;;;;8.13;5.95;;;;;;;-145.68;63.30;72858.22;10403290;28;20189;-74
2023/09/27 07:50:38;;;;;;;9.43;6.28;;;;;;;-145.68;66.70;72938.16;10402839;28;20232;-74
2023/09/27 07:55:50;;;;;;;10.45;6.47;;;;;;;-145.68;65.29;72944.16;10402808;28;20184;-74
2023/09/27 08:00:50;;;;;;;15.68;7.68;;;;;;;-145.68;68.13;73038.09;10402057;28;20239;-75
2023/09/27 08:05:51;;;;;;;15.35;7.57;;;;;;;-145.68;66.69;72944.16;10409070;28;20564;-74
2023/09/27 08:10:52;;;;;;;10.98;6.88;;;;;;;-145.68;63.93;72872.22;10409520;28;20192;-75
2023/09/27 08:15:53;;;;;;;12.82;8.52;;;;;;;-145.68;65.55;72928.19;10409352;28;20243;-75
2023/09/27 08:20:54;;;;;;;16.90;9.55;;;;;;;-145.68;63.20;72862.22;10391535;28;20217;-74
2023/09/27 08:25:55;;;;;;;15.77;9.82;;;;;;;-145.68;61.24;72892.22;10390990;28;20211;-75
2023/09/27 08:30:59;;;;;;;14.73;10.13;;;;;;;-145.68;57.55;72770.31;10409134;28;20202;-75
2023/09/27 08:36:00;;;;;;;30.77;22.83;;;;;;;-145.68;57.27;72782.28;10408319;28;20197;-75
2023/09/27 08:41:01;;;;;;;14.45;9.30;;;;;;;-145.68;57.32;72790.28;10408698;28;20220;-75
2023/09/27 08:46:03;;;;;;;17.20;8.77;;;;;;;-145.68;58.14;72758.31;10407719;28;20205;-75
2023/09/27 08:51:04;;;;;;;14.25;8.63;;;;;;;-145.68;53.42;72582.44;10409148;28;20240;-75
2023/09/27 08:56:06;;;;;;;13.27;7.78;;;;;;;-145.68;52.25;72526.50;10390532;28;20188;-75
2023/09/27 09:01:10;;;;;;;12.73;6.40;;;;;;;-145.68;49.09;72328.69;10390210;28;20665;-74
2023/09/27 09:06:12;;;;;;;12.75;6.35;;;;;;;-145.68;46.04;72144.84;10390829;28;20224;-75
2023/09/27 09:11:16;;;;;;;10.95;6.72;;;;;;;-145.68;44.97;72090.91;10390283;28;20189;-75
2023/09/27 09:16:23;;;;;;;10.80;7.50;;;;;;;-145.68;44.00;72168.81;10406107;28;20216;-75
2023/09/27 09:21:25;;;;;;;8.52;5.40;;;;;;;-145.68;43.91;72112.88;10389951;28;20189;-75
2023/09/27 09:26:28;;;;;;;9.98;6.00;;;;;;;-145.68;45.44;72250.75;10407423;28;20192;-75
2023/09/27 09:31:30;;;;;;;7.82;5.32;;;;;;;-145.68;43.05;72082.91;10406813;28;20675;-75
2023/09/27 09:36:31;;;;;;;13.23;5.38;;;;;;;-145.68;40.99;72022.97;10406084;28;20181;-75
2023/09/27 09:41:53;;;;;;;10.43;5.53;;;;;;;-145.68;42.31;72064.91;10407009;28;20274;-74
2023/09/27 09:46:53;;;;;;;11.70;5.43;;;;;;;-145.68;43.39;72150.84;10402045;28;20557;-75
2023/09/27 09:51:56;;;;;;;8.73;5.13;;;;;;;-145.68;42.07;72116.88;10406516;28;20196;-75
2023/09/27 09:56:59;;;;;;;8.98;5.65;;;;;;;-145.68;43.96;72132.84;10388181;28;20196;-75
2023/09/27 10:01:59;;;;;;;11.07;5.40;;;;;;;-145.68;41.94;72110.88;10406490;28;20227;-75
2023/09/27 10:07:02;;;;;;;9.57;4.63;;;;;;;-145.68;41.37;72196.78;10387520;28;20215;-74
2023/09/27 10:12:03;;;;;;;9.13;4.32;;;;;;;-145.68;42.63;72424.59;10388135;28;20251;-74
2023/09/27 10:17:03;;;;;;;6.93;4.70;;;;;;;-145.68;41.79;72332.66;10387518;28;20645;-75
2023/09/27 10:22:05;;;;;;;7.07;4.15;;;;;;;-145.68;41.06;72344.66;10405715;28;20197;-74
2023/09/27 10:27:05;;;;;;;7.30;4.65;;;;;;;-145.68;40.96;72376.63;10404156;28;20282;-74
2023/09/27 10:32:06;;;;;;;7.63;4.35;;;;;;;-145.68;41.50;72330.66;10405208;28;20207;-74
2023/09/27 10:37:07;;;;;;;9.60;4.50;;;;;;;-145.68;41.52;72322.69;10404942;28;20205;-75
2023/09/27 10:42:08;;;;;;;9.27;4.30;;;;;;;-145.68;41.36;72372.63;10404328;28;20567;-74
2023/09/27 10:47:08;;;;;;;9.43;4.32;;;;;;;-145.68;40.73;72372.63;10404470;28;20260;-74
2023/09/27 10:52:16;;;;;;;5.30;4.07;;;;;;;-145.68;39.09;72232.75;10404636;28;20508;-75
2023/09/27 10:57:20;;;;;;;12.40;4.28;;;;;;;-145.68;38.57;72262.72;10385834;28;20668;-74
2023/09/27 11:02:28;;;;;;;7.10;4.47;;;;;;;-145.68;39.13;72168.81;10404598;28;20212;-74
2023/09/27 11:07:48;;;;;;;6.90;4.25;;;;;;;-145.68;36.59;71937.03;10385955;28;20216;-74
2023/09/27 11:12:48;;;;;;;9.65;4.60;;;;;;;-145.68;38.09;72166.81;10403203;28;20208;-74
2023/09/27 11:17:54;;;;;;;7.97;4.75;;;;;;;-145.68;40.29;72452.56;10385582;28;20568;-74
2023/09/27 11:22:58;;;;;;;9.57;4.70;;;;;;;-145.68;41.16;72462.56;10385820;28;20298;-75
2023/09/27 11:27:59;;;;;;;8.68;4.43;;;;;;;-145.68;41.95;72536.50;10384868;28;20228;-74
2023/09/27 11:33:01;;;;;;;7.50;4.65;;;;;;;-145.68;41.19;72456.56;10403793;28;20578;-74
2023/09/27 11:38:11;;;;;;;6.95;4.40;;;;;;;-145.68;41.74;72548.47;10406415;28;20693;-74
2023/09/27 11:43:12;;;;;;;12.55;4.93;;;;;;;-145.68;42.35;72506.50;10393032;28;20196;-74
2023/09/27 11:48:12;;;;;;;14.93;4.65;;;;;;;-145.68;41.96;72526.50;10392884;28;20232;-74
2023/09/27 11:53:14;;;;;;;12.80;5.18;;;;;;;-145.68;41.64;72472.53;10410859;28;20220;-74
2023/09/27 11:58:15;;;;;;;11.38;5.03;;;;;;;-145.68;40.07;72362.66;10411031;28;20181;-74
2023/09/27 12:03:15;;;;;;;9.10;4.97;;;;;;;-145.68;41.01;72434.59;10410755;28;20616;-74
2023/09/27 12:08:16;;;;;;;8.73;5.47;;;;;;;-145.68;41.17;72428.59;10410169;28;20224;-74
2023/09/27 12:13:16;;;;;;;9.00;4.93;;;;;;;-145.68;40.12;72336.66;10391875;28;20727;-75
2023/09/27 12:18:16;;;;;;;8.27;5.03;;;;;;;-145.68;42.07;72486.53;10410341;28;20197;-74
2023/09/27 12:23:17;;;;;;;8.88;5.15;;;;;;;-145.68;42.86;72462.56;10409148;28;20192;-74
2023/09/27 12:28:18;;;;;;;8.50;4.90;;;;;;;-145.68;39.84;72382.63;10410219;28;20561;-74
2023/09/27 12:33:19;;;;;;;7.65;4.80;;;;;;;-145.68;38.08;72264.72;10409158;28;20538;-74
2023/09/27 12:38:21;;;;;;;8.95;4.60;;;;;;;-145.68;37.77;72224.78;10409343;28;20192;-74
2023/09/27 12:43:21;;;;;;;9.50;4.47;;;;;;;-145.68;38.68;72288.72;10408016;28;20201;-74
2023/09/27 12:48:22;;;;;;;10.43;4.55;;;;;;;-145.68;39.79;72478.53;10390736;28;20306;-74
2023/09/27 12:53:22;;;;;;;6.38;4.07;;;;;;;-145.68;39.15;72342.66;10408440;28;20224;-74
2023/09/27 12:58:22;;;;;;;6.75;4.65;;;;;;;-145.68;39.45;72388.63;10408705;28;20181;-75
2023/09/27 13:03:23;;;;;;;9.05;4.80;;;;;;;-145.68;40.31;72412.59;10408328;28;20199;-74
2023/09/27 13:08:23;;;;;;;8.18;4.57;;;;;;;-145.68;39.38;72262.72;10407781;28;20665;-75
2023/09/27 13:13:24;;;;;;;7.40;5.13;;;;;;;-145.68;38.87;72232.75;10407991;28;20192;-75
2023/09/27 13:18:24;;;;;;;8.45;4.78;;;;;;;-145.68;39.50;72372.63;10407638;28;20199;-74
2023/09/27 13:23:25;;;;;;;12.75;5.38;;;;;;;-145.68;40.42;72412.59;10407110;28;20299;-74
2023/09/27 13:28:26;;;;;;;10.63;4.70;;;;;;;-145.68;41.56;72446.56;10407237;28;20220;-74
2023/09/27 13:33:26;;;;;;;9.02;4.57;;;;;;;-145.68;39.89;72364.63;10407239;28;20204;-74
2023/09/27 13:38:27;;;;;;;8.75;5.57;;;;;;;-145.68;40.14;72334.66;10407046;28;20188;-74
2023/09/27 13:43:28;;;;;;;6.65;5.35;;;;;;;-145.68;39.80;72262.72;10406607;28;20189;-74
2023/09/27 13:48:29;;;;;;;10.95;5.18;;;;;;;-145.68;40.75;72366.63;10406661;28;20243;-74
2023/09/27 13:53:29;;;;;;;12.52;5.30;;;;;;;-145.68;40.52;72362.66;10405983;28;20196;-74
2023/09/27 13:58:29;;;;;;;6.05;4.72;;;;;;;-145.68;39.84;72366.63;10406127;28;20567;-74
2023/09/27 14:03:30;;;;;;;7.95;4.75;;;;;;;-145.68;39.98;72412.59;10405562;28;20224;-74
2023/09/27 14:08:30;;;;;;;15.98;5.18;;;;;;;-145.68;39.87;72392.63;10419737;28;20232;-74
2023/09/27 14:13:31;;;;;;;8.80;5.03;;;;;;;-145.68;40.48;72368.63;10408132;28;20192;-73
2023/09/27 14:18:34;;;;;;;12.43;5.28;;;;;;;-145.68;40.58;72396.63;10405193;28;20201;-73
2023/09/27 14:23:35;;;;;;;9.60;4.78;;;;;;;-145.68;40.96;72392.63;10401019;28;20200;-74
2023/09/27 14:28:35;;;;;;;13.13;5.72;;;;;;;-145.68;42.53;72456.56;10405454;28;20651;-73
2023/09/27 14:33:36;;;;;;;12.23;5.32;;;;;;;-145.68;42.07;72458.56;10404236;28;20188;-73
2023/09/27 14:38:37;;;;;;;9.35;5.53;;;;;;;-145.68;41.65;72366.63;10404851;28;20204;-74
2023/09/27 14:43:37;;;;;;;14.07;5.43;;;;;;;-145.68;40.84;72216.78;10386979;28;20195;-74
2023/09/27 14:48:38;;;;;;;15.00;6.03;;;;;;;-145.68;40.27;72220.78;10386226;28;20294;-73
2023/09/27 14:53:40;;;;;;;8.23;5.38;;;;;;;-145.68;41.69;72396.63;10404393;28;20192;-73
2023/09/27 14:58:41;;;;;;;13.38;6.07;;;;;;;-145.68;41.71;72344.66;10404261;28;20251;-73
2023/09/27 15:03:41;;;;;;;10.85;6.10;;;;;;;-145.68;42.32;72366.63;10404080;28;20227;-74
2023/09/27 15:08:43;;;;;;;14.75;6.60;;;;;;;-145.68;41.65;72326.69;10404407;28;20302;-73
2023/09/27 15:13:43;;;;;;;18.27;6.70;;;;;;;-145.68;41.41;72352.66;10409330;28;20725;-73
2023/09/27 15:18:44;;;;;;;18.70;6.03;;;;;;;-145.68;42.11;72358.66;10412388;28;20202;-73
2023/09/27 15:23:45;;;;;;;14.10;6.55;;;;;;;-145.68;43.79;72538.50;10412049;28;20200;-73
2023/09/27 15:28:46;;;;;;;12.32;6.28;;;;;;;-145.68;42.73;72372.63;10412619;28;20217;-73
2023/09/27 15:33:48;;;;;;;10.40;5.97;;;;;;;-145.68;43.26;72428.59;10412257;28;20189;-73
2023/09/27 15:38:48;;;;;;;9.02;6.07;;;;;;;-145.68;41.77;72326.69;10413246;28;20276;-74
2023/09/27 15:43:49;;;;;;;12.60;6.15;;;;;;;-145.68;40.71;72236.75;10412193;28;20201;-73
2023/09/27 15:48:49;;;;;;;17.30;6.13;;;;;;;-145.68;41.70;72316.69;10411952;28;20749;-73
2023/09/27 15:53:51;;;;;;;14.43;6.80;;;;;;;-145.68;44.04;72524.50;10411494;28;20208;-73
2023/09/27 15:58:52;;;;;;;13.07;6.55;;;;;;;-145.68;46.96;72670.38;10413271;28;20569;-73
2023/09/27 16:03:52;;;;;;;20.27;11.48;;;;;;;-145.68;48.38;72720.34;10407262;28;20203;-74
2023/09/27 16:08:53;;;;;;;26.38;18.17;;;;;;;-145.68;48.45;72714.34;10411116;28;20715;-74
2023/09/27 16:13:53;;;;;;;13.88;8.13;;;;;;;-145.68;49.73;72758.31;10410733;28;20284;-73
2023/09/27 16:18:54;;;;;;;10.10;6.93;;;;;;;-145.68;50.01;72776.28;10412168;28;20197;-74
2023/09/27 16:23:54;;;;;;;11.43;6.82;;;;;;;-145.68;50.73;72802.28;10410274;28;20193;-74
2023/09/27 16:28:55;;;;;;;10.38;6.95;;;;;;;-145.68;51.98;72852.25;10410131;28;20351;-74
2023/09/27 16:33:58;;;;;;;12.55;7.75;;;;;;;-145.68;53.57;72914.19;10393851;28;20257;-73
2023/09/27 16:39:02;;;;;;;14.90;7.35;;;;;;;-145.68;54.68;72950.16;10409775;28;20288;-74
2023/09/27 16:44:03;;;;;;;11.90;7.32;;;;;;;-145.68;56.66;73004.13;10409450;28;20216;-73
2023/09/27 16:49:03;;;;;;;9.10;7.10;;;;;;;-145.68;59.92;73086.06;10409707;28;20319;-73
2023/09/27 16:54:06;;;;;;;9.40;7.45;;;;;;;-145.68;61.78;73126.03;10410102;28;20212;-73
2023/09/27 16:59:06;;;;;;;15.48;8.45;;;;;;;-145.68;63.66;73170.00;10392210;28;20188;-74
2023/09/27 17:04:07;;;;;;;20.88;8.52;;;;;;;-145.68;66.27;73229.97;10408880;28;20574;-73
2023/09/27 17:09:08;;;;;;;13.75;8.77;;;;;;;-145.68;68.75;73249.94;10409279;28;20216;-74
2023/09/27 17:14:08;;;;;;;18.08;9.20;;;;;;;-145.68;71.14;73279.94;10409484;28;20196;-73
2023/09/27 17:19:09;;;;;;;21.67;9.65;;;;;;;-145.68;76.58;73335.91;10408930;28;20193;-74
2023/09/27 17:24:09;;;;;;;19.63;9.70;;;;;;;-145.68;79.56;73367.88;10408377;28;20223;-73
2023/09/27 17:29:10;;;;;;;19.05;9.38;;;;;;;-145.68;80.95;73363.88;10407655;28;20592;-73
2023/09/27 17:34:10;;;;;;;12.90;9.73;;;;;;;-145.68;83.23;73415.84;10408382;28;21228;-74
2023/09/27 17:39:11;;;;;;;16.60;11.02;;;;;;;-145.68;89.15;73451.81;10407621;28;20199;-73
2023/09/27 17:44:11;;;;;;;17.17;10.27;;;;;;;-145.68;89.86;73463.81;10407175;28;20203;-74
2023/09/27 17:49:11;;;;;;;12.55;9.90;;;;;;;-145.68;93.30;73479.81;10389600;28;20731;-74
2023/09/27 17:54:12;;;;;;;14.30;9.85;;;;;;;-145.68;95.51;73507.78;10407900;28;20200;-74
2023/09/27 17:59:13;;;;;;;16.20;10.50;;;;;;;-145.68;98.17;73529.78;10406996;28;20222;-74
2023/09/27 18:04:14;;;;;;;20.40;11.45;;;;;;;-145.68;100.00;73541.78;10389131;28;20188;-74
2023/09/27 18:09:14;;;;;;;20.23;12.98;;;;;;;-145.68;100.00;73551.75;10390311;28;20220;-73
2023/09/27 18:14:15;;;;;;;17.33;12.55;;;;;;;-145.68;100.00;73559.75;10406058;28;20189;-74
2023/09/27 18:19:15;;;;;;;20.08;13.43;;;;;;;-145.68;100.00;73567.75;10406151;28;20195;-74
2023/09/27 18:24:16;;;;;;;17.42;11.20;;;;;;;-145.68;100.00;73585.75;10404956;28;20196;-74
2023/09/27 18:29:16;;;;;;;14.05;12.18;;;;;;;-145.68;100.00;73607.72;10406819;28;20216;-73
2023/09/27 18:34:17;;;;;;;15.50;11.43;;;;;;;-145.68;100.00;73619.72;10405391;28;20679;-74
2023/09/27 18:39:17;;;;;;;19.70;11.27;;;;;;;-145.68;100.00;73633.72;10405273;28;20200;-73
2023/09/27 18:44:20;;;;;;;18.08;11.43;;;;;;;-145.68;100.00;73649.72;10404530;28;20543;-74
2023/09/27 18:49:21;;;;;;;18.75;11.32;;;;;;;-145.68;100.00;73667.69;10404944;28;20634;-73
2023/09/27 18:54:21;;;;;;;17.48;10.63;;;;;;;-145.68;100.00;73679.69;10404814;28;20197;-73
2023/09/27 18:59:21;;;;;;;18.55;12.10;;;;;;;-145.68;100.00;73703.69;10405211;28;20208;-73
2023/09/27 19:04:22;;;;;;;21.88;10.77;;;;;;;-145.68;100.00;73715.66;10404989;28;20727;-74
2023/09/27 19:09:22;;;;;;;19.42;10.95;;;;;;;-145.68;100.00;73723.66;10405555;28;20677;-73
2023/09/27 19:14:23;;;;;;;15.07;9.95;;;;;;;-145.68;100.00;73731.66;10404650;28;20196;-73
2023/09/27 19:19:23;;;;;;;17.17;10.40;;;;;;;-145.68;100.00;73737.66;10404693;28;20196;-74
2023/09/27 19:24:23;;;;;;;19.98;11.55;;;;;;;-145.68;100.00;73763.66;10403950;28;20216;-73
2023/09/27 19:29:24;;;;;;;14.98;9.90;;;;;;;-145.68;100.00;73761.66;10405709;28;20212;-74
2023/09/27 19:34:24;;;;;;;13.68;10.63;;;;;;;-145.68;100.00;73771.63;10406164;28;20188;-73
2023/09/27 19:39:26;;;;;;;11.50;10.07;;;;;;;-145.68;100.00;73787.63;10403325;28;20633;-73
2023/09/27 19:44:26;;;;;;;21.45;10.20;;;;;;;-145.68;100.00;73787.63;10403380;28;20197;-73
2023/09/27 19:49:26;;;;;;;12.73;9.85;;;;;;;-145.68;100.00;73791.63;10385375;28;20612;-73
2023/09/27 19:54:27;;;;;;;13.32;10.23;;;;;;;-145.68;100.00;73779.63;10402655;28;20196;-73
2023/09/27 19:59:27;;;;;;;15.52;9.88;;;;;;;-145.68;100.00;73787.63;10406552;28;20196;-74
2023/09/27 20:04:27;;;;;;;14.32;9.40;;;;;;;-145.68;100.00;73799.63;10410596;28;20189;-74
2023/09/27 20:09:28;;;;;;;15.13;10.10;;;;;;;-145.68;100.00;73805.63;10410405;28;20216;-74
2023/09/27 20:14:28;;;;;;;21.08;10.02;;;;;;;-145.68;100.00;73809.63;10409863;28;20238;-73
2023/09/27 20:19:29;;;;;;;18.48;9.75;;;;;;;-145.68;100.00;73811.63;10407474;28;20199;-73
2023/09/27 20:24:29;;;;;;;19.33;9.50;;;;;;;-145.68;100.00;73827.59;10403095;28;20184;-74
2023/09/27 20:29:30;;;;;;;12.55;9.13;;;;;;;-145.68;100.00;73819.63;10410119;28;20219;-73
2023/09/27 20:34:32;;;;;;;13.30;9.70;;;;;;;-145.68;100.00;73827.59;10409105;28;20632;-74
2023/09/27 20:39:32;;;;;;;15.25;9.23;;;;;;;-145.68;100.00;73831.59;10407980;28;20591;-73
2023/09/27 20:44:32;;;;;;;16.77;10.30;;;;;;;-145.68;100.00;73847.59;10412570;28;20298;-73
2023/09/27 20:49:33;;;;;;;11.45;8.65;;;;;;;-145.68;100.00;73855.59;10414251;28;20224;-74
2023/09/27 20:54:34;;;;;;;13.27;8.88;;;;;;;-145.68;100.00;73853.59;10415990;28;20663;-73
2023/09/27 20:59:34;;;;;;;13.35;9.23;;;;;;;-145.68;100.00;73855.59;10410445;28;20188;-73
2023/09/27 21:04:35;;;;;;;16.15;10.27;;;;;;;-145.68;100.00;73855.59;10407216;28;20271;-73
2023/09/27 21:09:37;;;;;;;12.60;9.38;;;;;;;-145.68;100.00;73853.59;10407604;28;20556;-73
2023/09/27 21:14:38;;;;;;;10.68;8.65;;;;;;;-145.68;100.00;73837.59;10406766;28;20283;-73
2023/09/27 21:19:38;;;;;;;12.50;8.88;;;;;;;-145.68;100.00;73841.59;10407514;28;20181;-73
2023/09/27 21:24:40;;;;;;;11.98;7.82;;;;;;;-145.68;100.00;73845.59;10406705;28;20181;-73
2023/09/27 21:29:41;;;;;;;21.58;9.50;;;;;;;-145.68;100.00;73855.59;10407002;28;20621;-73
2023/09/27 21:34:41;;;;;;;12.93;9.15;;;;;;;-145.68;100.00;73853.59;10410260;28;20525;-73
2023/09/27 21:39:41;;;;;;;13.40;9.25;;;;;;;-145.68;100.00;73851.59;10407966;28;20199;-72
2023/09/27 21:44:42;;;;;;;12.98;9.00;;;;;;;-145.68;100.00;73835.59;10405665;28;20194;-73
2023/09/27 21:49:43;;;;;;;10.35;9.02;;;;;;;-145.68;100.00;73829.59;10405860;28;20312;-73
2023/09/27 21:54:43;;;;;;;16.23;8.88;;;;;;;-145.68;100.00;73827.59;10406283;28;20203;-73
2023/09/27 21:59:43;;;;;;;13.63;8.70;;;;;;;-145.68;100.00;73821.63;10405727;28;20656;-73
2023/09/27 22:04:44;;;;;;;11.10;8.43;;;;;;;-145.68;100.00;73799.63;10405789;28;20266;-73
2023/09/27 22:09:44;;;;;;;12.82;8.88;;;;;;;-145.68;100.00;73805.63;10405751;28;20680;-73
2023/09/27 22:14:46;;;;;;;13.23;8.48;;;;;;;-145.68;100.00;73799.63;10405691;28;20220;-73
2023/09/27 22:19:47;;;;;;;15.23;7.82;;;;;;;-145.68;100.00;73771.63;10404920;28;20303;-72
2023/09/27 22:24:47;;;;;;;11.25;8.77;;;;;;;-145.68;100.00;73757.66;10404869;28;20184;-72